Time;durP1;ratioP1;P1;durP2;ratioP2;P2;SDS_P1;SDS_P2;PMS_P1;PMS_P2;Temp;Humidity;BMP_temperature;BMP_pressure;BME280_temperature;BME280_humidity;BME280_pressure;Samples;Min_cycle;Max_cycle;Signal;HPM_P1;HPM_P2
2021/08/23 00:00:15;;;;;;;16.13;5.13;;;16.00;99.90;;;;;;5065723;28;20059;-85
2021/08/23 00:02:42;;;;;;;17.70;4.90;;;16.00;99.90;;;;;;5049493;28;20086;-84
2021/08/23 00:05:08;;;;;;;10.60;4.65;;;16.00;99.90;;;;;;5050415;28;20045;-84
2021/08/23 00:07:34;;;;;;;9.48;4.43;;;16.00;99.90;;;;;;5066851;28;20393;-84
2021/08/23 00:09:59;;;;;;;11.80;4.65;;;16.00;99.90;;;;;;5058011;28;20045;-85
2021/08/23 00:12:27;;;;;;;12.07;4.72;;;16.00;99.90;;;;;;5044281;28;20048;-84
2021/08/23 00:14:53;;;;;;;13.88;4.10;;;16.00;99.90;;;;;;5050544;28;20059;-84
2021/08/23 00:17:19;;;;;;;10.35;3.90;;;16.00;99.90;;;;;;5051239;28;20041;-84
2021/08/23 00:19:45;;;;;;;14.05;4.05;;;16.00;99.90;;;;;;5037341;28;20103;-83
2021/08/23 00:22:31;;;;;;;13.90;5.22;;;16.00;99.90;;;;;;5066071;28;20063;-83
2021/08/23 00:25:00;;;;;;;16.05;4.75;;;16.00;99.90;;;;;;5048833;28;20128;-84
2021/08/23 00:27:27;;;;;;;8.23;3.78;;;16.00;99.90;;;;;;5051094;28;20052;-83
2021/08/23 00:29:53;;;;;;;12.30;4.40;;;16.00;99.90;;;;;;5049657;28;20055;-83
2021/08/23 00:32:19;;;;;;;6.32;3.78;;;16.00;99.90;;;;;;5050328;28;20485;-83
2021/08/23 00:34:45;;;;;;;9.75;4.03;;;16.00;99.90;;;;;;5050027;28;20053;-84
2021/08/23 00:37:11;;;;;;;14.38;4.30;;;16.00;99.90;;;;;;5046469;28;20362;-83
2021/08/23 00:39:37;;;;;;;10.55;4.38;;;15.90;99.90;;;;;;5049029;28;20129;-83
2021/08/23 00:42:05;;;;;;;9.32;4.45;;;15.90;99.90;;;;;;5049852;28;20045;-84
2021/08/23 00:44:32;;;;;;;10.93;4.38;;;15.90;99.90;;;;;;5050986;28;20045;-84
2021/08/23 00:47:01;;;;;;;23.27;4.18;;;15.90;99.90;;;;;;5057111;28;20062;-84
2021/08/23 00:49:32;;;;;;;12.23;4.30;;;15.90;99.90;;;;;;5051000;28;20105;-84
2021/08/23 00:51:59;;;;;;;8.93;4.57;;;15.90;99.90;;;;;;5050252;28;20288;-84
2021/08/23 00:54:25;;;;;;;9.77;4.45;;;15.90;99.90;;;;;;5049678;28;20053;-84
2021/08/23 00:56:51;;;;;;;8.70;3.92;;;15.90;99.90;;;;;;5032870;28;20110;-84
2021/08/23 00:59:20;;;;;;;8.73;4.00;;;15.90;99.90;;;;;;5048694;28;20179;-84
2021/08/23 01:01:55;;;;;;;10.48;4.10;;;15.90;99.90;;;;;;5049385;28;20044;-84
2021/08/23 01:04:39;;;;;;;9.95;3.78;;;15.80;99.90;;;;;;5064724;28;20899;-84
2021/08/23 01:07:11;;;;;;;10.35;3.70;;;15.80;99.90;;;;;;5049490;28;20484;-85
2021/08/23 01:09:39;;;;;;;12.65;4.32;;;15.80;99.90;;;;;;5043638;28;20465;-85
2021/08/23 01:12:08;;;;;;;12.65;4.03;;;15.80;99.90;;;;;;5041669;28;20049;-84
2021/08/23 01:14:35;;;;;;;10.05;3.20;;;15.80;99.90;;;;;;5065524;28;20041;-84
2021/08/23 01:17:01;;;;;;;5.95;3.47;;;15.80;99.90;;;;;;5049478;28;20124;-85
2021/08/23 01:19:30;;;;;;;5.75;3.35;;;15.70;99.90;;;;;;5049896;28;20123;-85
2021/08/23 01:22:00;;;;;;;5.32;3.60;;;15.80;99.90;;;;;;5050453;28;20061;-84
2021/08/23 01:24:32;;;;;;;8.65;3.95;;;15.70;99.90;;;;;;5049728;28;20045;-84
2021/08/23 01:27:01;;;;;;;6.82;3.42;;;15.70;99.90;;;;;;5049657;28;20439;-84
2021/08/23 01:29:36;;;;;;;8.65;3.40;;;15.70;99.90;;;;;;5031618;28;20112;-85
2021/08/23 01:32:26;;;;;;;9.13;3.50;;;15.70;99.90;;;;;;5049461;28;20029;-84
2021/08/23 01:34:53;;;;;;;;;;;15.70;99.90;;;;;;5035049;28;20053;-84
2021/08/23 01:37:24;;;;;;;6.38;3.78;;;15.70;99.90;;;;;;5048537;28;19924;-84
2021/08/23 01:39:50;;;;;;;8.23;3.85;;;15.70;99.90;;;;;;5049615;28;20033;-84
2021/08/23 01:42:17;;;;;;;7.55;3.63;;;15.70;99.90;;;;;;5049349;28;20040;-84
2021/08/23 01:44:43;;;;;;;9.65;3.90;;;15.70;99.90;;;;;;5049561;28;20083;-84
2021/08/23 01:47:09;;;;;;;10.40;3.95;;;15.70;99.90;;;;;;5048779;28;20128;-84
2021/08/23 01:49:39;;;;;;;11.23;3.45;;;15.60;99.90;;;;;;5049618;28;20124;-84
2021/08/23 01:52:09;;;;;;;15.65;4.13;;;15.60;99.90;;;;;;5049410;28;20123;-84
2021/08/23 01:54:38;;;;;;;6.55;3.70;;;15.60;99.90;;;;;;5049657;28;20460;-84
2021/08/23 01:57:04;;;;;;;9.18;3.33;;;15.60;99.90;;;;;;5048976;28;20098;-86
2021/08/23 01:59:30;;;;;;;9.50;3.70;;;15.60;99.90;;;;;;5049600;28;20045;-82
2021/08/23 02:01:56;;;;;;;10.27;4.20;;;15.60;99.90;;;;;;5049365;28;20052;-83
2021/08/23 02:04:21;;;;;;;7.07;3.58;;;15.70;99.90;;;;;;5048763;28;20063;-83
2021/08/23 02:06:47;;;;;;;11.90;3.63;;;15.60;99.90;;;;;;5064095;28;20473;-84
2021/08/23 02:09:14;;;;;;;10.25;3.90;;;15.70;99.90;;;;;;5030897;28;20412;-83
2021/08/23 02:11:41;;;;;;;10.32;3.97;;;15.60;99.90;;;;;;5047848;28;20103;-82
2021/08/23 02:14:07;;;;;;;12.65;3.97;;;15.60;99.90;;;;;;5046966;28;20053;-83
2021/08/23 02:16:33;;;;;;;11.68;4.28;;;15.60;99.90;;;;;;5049310;28;20041;-83
2021/08/23 02:18:59;;;;;;;14.43;4.05;;;15.60;99.90;;;;;;5049268;28;20124;-83
2021/08/23 02:21:28;;;;;;;16.80;4.57;;;15.60;99.90;;;;;;5038724;28;20036;-83
2021/08/23 02:23:54;;;;;;;12.32;3.88;;;15.60;99.90;;;;;;5047871;28;20045;-83
2021/08/23 02:26:20;;;;;;;13.05;4.32;;;15.60;99.90;;;;;;5048304;28;20048;-83
2021/08/23 02:28:46;;;;;;;11.88;3.80;;;15.70;99.90;;;;;;5064097;28;20041;-83
2021/08/23 02:31:11;;;;;;;9.02;4.20;;;15.60;99.90;;;;;;5048044;28;20060;-83
2021/08/23 02:33:37;;;;;;;11.52;3.88;;;15.70;99.90;;;;;;5049019;28;20120;-83
2021/08/23 02:36:03;;;;;;;11.65;3.58;;;15.60;99.90;;;;;;5048683;28;20060;-83
2021/08/23 02:38:29;;;;;;;6.10;3.28;;;15.60;99.90;;;;;;5047017;28;20029;-84
2021/08/23 02:40:55;;;;;;;13.95;4.15;;;15.70;99.90;;;;;;5047977;28;20400;-83
2021/08/23 02:43:21;;;;;;;11.68;3.65;;;15.70;99.90;;;;;;5048286;28;20041;-82
2021/08/23 02:45:46;;;;;;;6.88;3.30;;;15.70;99.90;;;;;;5047685;28;20045;-83
2021/08/23 02:48:12;;;;;;;11.15;4.53;;;15.70;99.90;;;;;;5047578;28;20051;-83
2021/08/23 02:50:38;;;;;;;9.75;3.42;;;15.80;99.90;;;;;;5030283;28;20444;-83
2021/08/23 02:53:04;;;;;;;8.80;3.40;;;15.80;99.90;;;;;;5048747;28;20057;-82
2021/08/23 02:55:30;;;;;;;11.13;3.50;;;15.80;99.90;;;;;;5047889;28;20577;-82
2021/08/23 02:57:56;;;;;;;7.43;2.90;;;15.80;99.90;;;;;;5048699;28;20452;-82
2021/08/23 03:00:22;;;;;;;13.18;3.40;;;15.90;99.90;;;;;;5048097;28;20049;-83
2021/08/23 03:02:48;;;;;;;9.73;3.50;;;15.90;99.90;;;;;;5032786;28;20051;-82
2021/08/23 03:05:14;;;;;;;11.30;3.13;;;15.90;99.90;;;;;;5067151;28;20110;-82
2021/08/23 03:07:40;;;;;;;7.70;2.72;;;15.90;99.90;;;;;;5001453;28;20080;-82
2021/08/23 03:10:06;;;;;;;7.18;3.05;;;15.90;99.90;;;;;;5041536;28;20068;-82
2021/08/23 03:12:32;;;;;;;11.18;2.80;;;15.90;99.90;;;;;;5048809;28;20040;-82
2021/08/23 03:14:58;;;;;;;10.63;2.63;;;15.90;99.90;;;;;;5052546;28;20047;-82
2021/08/23 03:17:24;;;;;;;12.20;3.13;;;16.00;99.90;;;;;;5051217;28;20049;-82
2021/08/23 03:19:50;;;;;;;9.88;3.08;;;16.00;99.90;;;;;;5051435;28;20116;-82
2021/08/23 03:22:17;;;;;;;4.68;2.90;;;16.00;99.90;;;;;;5066521;28;20206;-82
2021/08/23 03:24:42;;;;;;;13.43;2.40;;;16.00;99.90;;;;;;5066528;28;20119;-82
2021/08/23 03:27:08;;;;;;;6.88;2.95;;;16.00;99.90;;;;;;5048255;28;20065;-82
2021/08/23 03:29:34;;;;;;;12.88;3.33;;;16.00;99.90;;;;;;5051110;28;20896;-82
2021/08/23 03:32:00;;;;;;;7.80;3.47;;;16.00;99.90;;;;;;5051909;28;20044;-82
2021/08/23 03:34:26;;;;;;;8.63;2.58;;;16.00;99.90;;;;;;5051017;28;20045;-82
2021/08/23 03:36:56;;;;;;;10.50;2.78;;;16.00;99.90;;;;;;5034447;28;20386;-82
2021/08/23 03:39:22;;;;;;;10.40;3.17;;;16.00;99.90;;;;;;5035973;28;20044;-82
2021/08/23 03:41:47;;;;;;;12.35;2.55;;;16.00;99.90;;;;;;5067139;28;20392;-83
2021/08/23 03:44:13;;;;;;;10.27;2.55;;;16.00;99.90;;;;;;5033603;28;20053;-82
2021/08/23 03:46:39;;;;;;;9.30;2.38;;;16.00;99.90;;;;;;5066444;28;20045;-82
2021/08/23 03:49:05;;;;;;;6.05;2.30;;;16.00;99.90;;;;;;5042900;28;20037;-82
2021/08/23 03:51:31;;;;;;;9.05;2.60;;;16.00;99.90;;;;;;5050869;28;20032;-82
2021/08/23 03:53:57;;;;;;;10.35;2.60;;;16.00;99.90;;;;;;5051834;28;20053;-83
2021/08/23 03:56:23;;;;;;;9.82;2.63;;;16.00;99.90;;;;;;5016436;28;20850;-83
2021/08/23 03:58:50;;;;;;;5.45;2.20;;;16.00;99.90;;;;;;5048239;28;20040;-83
2021/08/23 04:01:16;;;;;;;12.00;2.90;;;16.00;99.90;;;;;;5050906;28;20083;-83
2021/08/23 04:03:42;;;;;;;9.02;2.58;;;16.00;99.90;;;;;;5066342;28;20064;-83
2021/08/23 04:06:12;;;;;;;9.82;2.53;;;16.00;99.90;;;;;;5051681;28;20106;-83
2021/08/23 04:08:38;;;;;;;14.75;3.15;;;16.00;99.90;;;;;;5031761;28;20119;-83
2021/08/23 04:11:05;;;;;;;10.50;2.20;;;15.90;99.90;;;;;;5052704;28;20072;-83
2021/08/23 04:13:31;;;;;;;14.05;2.47;;;15.90;99.90;;;;;;5048995;28;20049;-82
2021/08/23 04:16:00;;;;;;;8.00;2.40;;;15.90;99.90;;;;;;5066329;28;20037;-83
2021/08/23 04:18:27;;;;;;;10.63;2.50;;;15.80;99.90;;;;;;5065112;28;20049;-82
2021/08/23 04:20:53;;;;;;;8.48;2.72;;;15.80;99.90;;;;;;5050011;28;20052;-83
2021/08/23 04:23:19;;;;;;;9.48;2.47;;;15.80;99.90;;;;;;5050710;28;20091;-83
2021/08/23 04:25:45;;;;;;;15.70;2.70;;;15.80;99.90;;;;;;5066714;28;20045;-83
2021/08/23 04:28:11;;;;;;;7.63;2.53;;;15.70;99.90;;;;;;5060596;28;20045;-83
2021/08/23 04:30:37;;;;;;;9.35;2.63;;;15.70;99.90;;;;;;5050208;28;20053;-82
2021/08/23 04:33:02;;;;;;;8.60;2.50;;;15.60;99.90;;;;;;5065888;28;20045;-83
2021/08/23 04:35:28;;;;;;;8.23;3.05;;;15.60;99.90;;;;;;5065700;28;20131;-83
2021/08/23 04:37:54;;;;;;;10.80;2.00;;;15.60;99.90;;;;;;5050974;28;20526;-83
2021/08/23 04:40:20;;;;;;;12.50;2.50;;;15.70;99.90;;;;;;5050347;28;20564;-83
2021/08/23 04:42:46;;;;;;;8.73;2.47;;;15.60;99.90;;;;;;5065944;28;20135;-83
2021/08/23 04:45:12;;;;;;;8.98;3.03;;;15.60;99.90;;;;;;5066139;28;20127;-83
2021/08/23 04:47:37;;;;;;;13.15;3.10;;;15.60;99.90;;;;;;5064983;28;20041;-82
2021/08/23 04:50:04;;;;;;;6.03;2.78;;;15.60;99.90;;;;;;5032845;28;20040;-82
2021/08/23 04:52:29;;;;;;;13.25;3.33;;;15.50;99.90;;;;;;5064827;28;20037;-82
2021/08/23 04:55:00;;;;;;;7.82;2.90;;;15.50;99.90;;;;;;5050405;28;20562;-82
2021/08/23 04:57:26;;;;;;;12.90;3.50;;;15.50;99.90;;;;;;5049607;28;20045;-82
2021/08/23 04:59:52;;;;;;;13.35;2.83;;;15.50;99.90;;;;;;5049170;28;20162;-82
2021/08/23 05:02:17;;;;;;;19.65;3.25;;;15.40;99.90;;;;;;5066078;28;20060;-82
2021/08/23 05:04:43;;;;;;;10.57;3.05;;;15.40;99.90;;;;;;5064941;28;20037;-82
2021/08/23 05:07:09;;;;;;;7.90;2.60;;;15.40;99.90;;;;;;5065584;28;20136;-82
2021/08/23 05:09:35;;;;;;;9.50;2.80;;;15.40;99.90;;;;;;5043253;28;20087;-82
2021/08/23 05:12:00;;;;;;;8.60;2.80;;;15.40;99.90;;;;;;5041611;28;20528;-82
2021/08/23 05:14:26;;;;;;;11.27;2.80;;;15.40;99.90;;;;;;5048808;28;20037;-83
2021/08/23 05:16:52;;;;;;;12.55;2.85;;;15.30;99.90;;;;;;5065772;28;20883;-82
2021/08/23 05:19:17;;;;;;;11.88;2.97;;;15.30;99.90;;;;;;5049760;28;20072;-81
2021/08/23 05:21:43;;;;;;;8.75;2.80;;;15.30;99.90;;;;;;5064685;28;20037;-82
2021/08/23 05:24:10;;;;;;;16.48;3.10;;;15.30;99.90;;;;;;5049694;28;20033;-82
2021/08/23 05:26:37;;;;;;;13.38;3.78;;;15.30;99.90;;;;;;5064288;28;20045;-82
2021/08/23 05:29:04;;;;;;;6.97;2.78;;;15.30;99.90;;;;;;5050231;28;20075;-82
2021/08/23 05:31:29;;;;;;;11.70;2.75;;;15.30;99.90;;;;;;5065150;28;20041;-82
2021/08/23 05:33:55;;;;;;;15.02;3.03;;;15.40;99.90;;;;;;5050174;28;20566;-83
2021/08/23 05:36:23;;;;;;;7.80;3.08;;;15.40;99.90;;;;;;5065262;28;20516;-83
2021/08/23 05:38:49;;;;;;;16.55;2.85;;;15.40;99.90;;;;;;5031268;28;20052;-83
2021/08/23 05:41:15;;;;;;;9.02;2.80;;;15.40;99.90;;;;;;5049300;28;20562;-83
2021/08/23 05:43:40;;;;;;;14.23;2.85;;;15.40;99.90;;;;;;5048890;28;20045;-84
2021/08/23 05:46:06;;;;;;;10.00;3.05;;;15.30;99.90;;;;;;5065259;28;20487;-83
2021/08/23 05:48:32;;;;;;;13.18;2.80;;;15.40;99.90;;;;;;5047656;28;20436;-83
2021/08/23 05:50:59;;;;;;;6.60;2.70;;;15.40;99.90;;;;;;5065186;28;20069;-83
2021/08/23 05:53:25;;;;;;;7.35;2.65;;;15.40;99.90;;;;;;5048154;28;20053;-83
2021/08/23 05:55:51;;;;;;;12.65;2.88;;;15.50;99.90;;;;;;5047701;28;20049;-83
2021/08/23 05:58:17;;;;;;;10.75;2.60;;;15.50;99.90;;;;;;5064804;28;20052;-83
2021/08/23 06:00:42;;;;;;;7.43;2.47;;;15.60;99.90;;;;;;5030834;28;20041;-82
2021/08/23 06:03:08;;;;;;;7.07;2.50;;;15.60;99.90;;;;;;5064658;28;20567;-82
2021/08/23 06:05:36;;;;;;;7.20;2.60;;;15.70;99.90;;;;;;5063457;28;20037;-83
2021/08/23 06:08:05;;;;;;;10.82;2.60;;;15.70;99.90;;;;;;5064676;28;20053;-83
2021/08/23 06:10:30;;;;;;;9.82;2.35;;;15.80;99.90;;;;;;5034298;28;20069;-82
2021/08/23 06:12:56;;;;;;;10.70;2.67;;;15.90;99.90;;;;;;5064763;28;20075;-83
2021/08/23 06:15:22;;;;;;;4.45;2.00;;;15.90;99.90;;;;;;5048000;28;20037;-83
2021/08/23 06:17:48;;;;;;;13.20;2.58;;;15.90;99.90;;;;;;5047132;28;20057;-82
2021/08/23 06:20:14;;;;;;;10.23;2.38;;;16.00;99.90;;;;;;5031475;28;20045;-82
2021/08/23 06:22:40;;;;;;;8.07;2.17;;;16.00;99.90;;;;;;5063616;28;20124;-82
2021/08/23 06:25:07;;;;;;;7.60;2.20;;;16.10;99.90;;;;;;5064515;28;20041;-83
2021/08/23 06:27:33;;;;;;;3.80;2.33;;;16.10;99.90;;;;;;5030627;28;20095;-84
2021/08/23 06:29:59;;;;;;;9.35;2.50;;;16.10;99.90;;;;;;5049077;28;20053;-83
2021/08/23 06:32:27;;;;;;;7.45;2.10;;;16.10;99.90;;;;;;5047721;28;20117;-84
2021/08/23 06:34:53;;;;;;;4.70;1.90;;;16.10;99.90;;;;;;5062835;28;20049;-84
2021/08/23 06:37:19;;;;;;;6.35;2.40;;;16.10;99.90;;;;;;5066328;28;20045;-84
2021/08/23 06:39:45;;;;;;;8.75;2.08;;;16.10;99.90;;;;;;5052454;28;20060;-85
2021/08/23 06:42:10;;;;;;;8.40;1.95;;;16.10;99.90;;;;;;5068627;28;20037;-85
2021/08/23 06:44:36;;;;;;;2.25;1.70;;;16.10;99.90;;;;;;5067319;28;20048;-82
2021/08/23 06:47:02;;;;;;;7.65;2.38;;;16.10;99.90;;;;;;5051884;28;20049;-82
2021/08/23 06:49:28;;;;;;;4.82;1.50;;;16.10;99.90;;;;;;5051270;28;20421;-82
2021/08/23 06:51:54;;;;;;;7.78;2.03;;;16.20;99.90;;;;;;5067619;28;20140;-83
2021/08/23 06:54:20;;;;;;;5.80;2.22;;;16.20;99.90;;;;;;5064749;28;20132;-83
2021/08/23 06:56:45;;;;;;;9.00;1.75;;;16.20;99.90;;;;;;5030394;28;20064;-82
2021/08/23 06:59:12;;;;;;;5.53;1.88;;;16.20;99.90;;;;;;5014816;28;20103;-83
2021/08/23 07:01:38;;;;;;;3.95;1.70;;;16.20;99.90;;;;;;5030939;28;20069;-83
2021/08/23 07:04:04;;;;;;;4.65;1.65;;;16.30;99.90;;;;;;5031809;28;20427;-83
2021/08/23 07:06:30;;;;;;;7.25;2.03;;;16.30;99.90;;;;;;5032763;28;20046;-83
2021/08/23 07:08:56;;;;;;;4.93;1.48;;;16.30;99.90;;;;;;5062160;28;20596;-85
2021/08/23 07:11:22;;;;;;;14.68;2.17;;;16.30;99.90;;;;;;5018863;28;20048;-83
2021/08/23 07:13:48;;;;;;;7.88;2.65;;;16.30;99.90;;;;;;5030077;28;20243;-83
2021/08/23 07:16:14;;;;;;;4.55;1.50;;;16.30;99.90;;;;;;5051794;28;20057;-83
2021/08/23 07:18:39;;;;;;;3.40;1.83;;;16.30;99.90;;;;;;5030901;28;20052;-83
2021/08/23 07:21:05;;;;;;;6.32;1.50;;;16.30;99.90;;;;;;5011167;28;20097;-82
2021/08/23 07:23:31;;;;;;;4.93;2.17;;;16.30;99.90;;;;;;5064319;28;20103;-83
2021/08/23 07:26:17;;;;;;;12.25;1.85;;;16.30;99.90;;;;;;5030986;28;20045;-83
2021/08/23 07:28:43;;;;;;;9.55;1.65;;;16.30;99.90;;;;;;5043670;28;20492;-83
2021/08/23 07:31:09;;;;;;;5.95;1.55;;;16.40;99.90;;;;;;5028286;28;20144;-83
2021/08/23 07:33:35;;;;;;;4.53;1.42;;;16.40;99.90;;;;;;5030363;28;20801;-83
2021/08/23 07:36:01;;;;;;;1.38;1.17;;;16.40;99.90;;;;;;5027072;28;20045;-84
2021/08/23 07:38:27;;;;;;;3.30;1.05;;;16.40;99.90;;;;;;5031681;28;20440;-84
2021/08/23 07:40:54;;;;;;;11.73;1.33;;;16.50;99.90;;;;;;5061565;28;20444;-83
2021/08/23 07:43:20;;;;;;;3.72;1.27;;;16.50;99.90;;;;;;5031339;28;20107;-84
2021/08/23 07:45:47;;;;;;;4.97;1.20;;;16.50;99.90;;;;;;5062840;28;20481;-84
2021/08/23 07:48:15;;;;;;;2.90;1.27;;;16.60;99.90;;;;;;5061681;28;20045;-83
2021/08/23 07:50:41;;;;;;;5.57;1.70;;;16.50;99.90;;;;;;5062259;28;20041;-85
2021/08/23 07:53:06;;;;;;;4.78;1.20;;;16.60;99.90;;;;;;5030028;28;20046;-84
2021/08/23 07:55:44;;;;;;;2.15;1.15;;;16.60;99.90;;;;;;5018816;28;20045;-84
2021/08/23 07:58:10;;;;;;;5.28;1.40;;;16.60;99.90;;;;;;5013717;28;20046;-85
2021/08/23 08:00:36;;;;;;;2.63;1.10;;;16.70;99.90;;;;;;5027504;28;20049;-85
2021/08/23 08:03:02;;;;;;;3.45;1.20;;;16.70;99.90;;;;;;5028739;28;20099;-82
2021/08/23 08:05:28;;;;;;;1.70;0.90;;;16.70;99.90;;;;;;5030551;28;20049;-85
2021/08/23 08:07:54;;;;;;;1.50;1.17;;;16.70;99.90;;;;;;5012359;28;20123;-84
2021/08/23 08:10:20;;;;;;;2.30;1.05;;;16.70;99.90;;;;;;5024719;28;20847;-84
2021/08/23 08:12:51;;;;;;;7.60;1.25;;;16.80;99.90;;;;;;5060978;28;20038;-84
2021/08/23 08:15:17;;;;;;;1.88;0.90;;;16.80;99.90;;;;;;5031364;28;20507;-84
2021/08/23 08:17:43;;;;;;;0.95;0.73;;;16.90;99.90;;;;;;5029983;28;20508;-84
2021/08/23 08:20:10;;;;;;;2.28;1.00;;;16.90;99.90;;;;;;5020502;28;20124;-84
2021/08/23 08:22:37;;;;;;;2.47;0.90;;;16.90;99.90;;;;;;5045652;28;20049;-83
2021/08/23 08:25:04;;;;;;;7.97;1.08;;;17.00;99.90;;;;;;5012853;28;20049;-85
2021/08/23 08:27:30;;;;;;;2.60;0.80;;;17.00;99.90;;;;;;5017741;28;20068;-84
2021/08/23 08:30:00;;;;;;;;;;;17.10;99.90;;;;;;5030882;28;20038;-85
2021/08/23 08:32:26;;;;;;;0.80;0.77;;;17.10;99.90;;;;;;5062664;28;19928;-85
2021/08/23 08:34:52;;;;;;;2.10;1.02;;;17.10;99.90;;;;;;5012373;28;20145;-83
2021/08/23 08:37:18;;;;;;;4.78;1.10;;;17.20;99.90;;;;;;5031020;28;20743;-85
2021/08/23 08:39:43;;;;;;;6.35;0.90;;;17.20;99.90;;;;;;5029366;28;20119;-84
2021/08/23 08:42:09;;;;;;;1.40;0.70;;;17.30;99.90;;;;;;5045471;28;20370;-85
2021/08/23 08:44:36;;;;;;;3.47;1.10;;;17.30;99.90;;;;;;5046004;28;20041;-83
2021/08/23 08:47:04;;;;;;;1.02;0.68;;;17.30;99.90;;;;;;5021701;28;20133;-84
2021/08/23 08:49:34;;;;;;;1.00;0.90;;;17.30;99.90;;;;;;5027566;28;20072;-85
2021/08/23 08:52:00;;;;;;;2.47;0.88;;;17.40;99.90;;;;;;5012844;28;20494;-85
2021/08/23 08:54:26;;;;;;;3.30;1.00;;;17.40;99.90;;;;;;5045234;28;20343;-82
2021/08/23 08:56:52;;;;;;;1.98;0.90;;;17.50;99.90;;;;;;5049403;28;20513;-84
2021/08/23 08:59:18;;;;;;;7.93;0.93;;;17.50;99.90;;;;;;5047874;28;20424;-83
2021/08/23 09:01:45;;;;;;;1.85;0.73;;;17.50;99.90;;;;;;5049582;28;20647;-85
2021/08/23 09:04:12;;;;;;;3.83;0.90;;;17.60;99.90;;;;;;5028621;28;20049;-83
2021/08/23 09:06:41;;;;;;;2.03;0.80;;;17.60;99.90;;;;;;5046939;28;20059;-84
2021/08/23 09:09:13;;;;;;;1.73;1.02;;;17.60;99.90;;;;;;5046875;28;20129;-83
2021/08/23 09:11:57;;;;;;;4.55;1.63;;;17.70;99.90;;;;;;5055271;28;20485;-83
2021/08/23 09:14:23;;;;;;;2.22;1.13;;;17.70;99.90;;;;;;5050236;28;20485;-83
2021/08/23 09:17:09;;;;;;;1.77;0.85;;;17.70;99.90;;;;;;5047972;28;20037;-84
2021/08/23 09:19:43;;;;;;;1.33;0.93;;;17.70;99.90;;;;;;5049252;28;20041;-84
2021/08/23 09:22:16;;;;;;;1.35;1.13;;;17.80;99.90;;;;;;5014751;28;20974;-84
2021/08/23 09:24:45;;;;;;;1.00;1.00;;;17.90;99.90;;;;;;5049665;28;20045;-85
2021/08/23 09:27:36;;;;;;;3.05;1.05;;;17.90;99.90;;;;;;5031436;28;20076;-85
2021/08/23 09:30:11;;;;;;;4.00;1.00;;;18.00;99.90;;;;;;5040091;28;20700;-86
2021/08/23 09:32:50;;;;;;;3.95;1.00;;;18.00;99.90;;;;;;5047876;28;20037;-85
2021/08/23 09:35:31;;;;;;;4.03;1.13;;;18.10;99.90;;;;;;5041941;28;20456;-84
2021/08/23 09:37:57;;;;;;;3.25;1.35;;;18.20;99.90;;;;;;5045074;28;20048;-85
2021/08/23 09:40:31;;;;;;;1.35;1.15;;;18.20;99.90;;;;;;5049445;28;20119;-85
2021/08/23 09:43:12;;;;;;;2.35;0.95;;;18.30;99.90;;;;;;5044868;28;20047;-84
2021/08/23 09:45:49;;;;;;;4.82;1.38;;;18.30;99.90;;;;;;5058051;28;20430;-85
2021/08/23 09:48:18;;;;;;;1.55;1.00;;;18.30;99.90;;;;;;5049729;28;20095;-84
2021/08/23 09:50:47;;;;;;;1.48;1.20;;;18.30;99.90;;;;;;5057172;28;20493;-84
2021/08/23 09:53:16;;;;;;;3.00;1.50;;;18.40;99.90;;;;;;5043204;28;20543;-85
2021/08/23 09:55:44;;;;;;;3.72;1.48;;;18.40;99.90;;;;;;5048752;28;20106;-83
2021/08/23 09:58:10;;;;;;;2.85;1.10;;;18.50;99.90;;;;;;5048109;28;20037;-85
2021/08/23 10:00:37;;;;;;;3.17;1.08;;;18.50;99.90;;;;;;5036147;28;20044;-84
2021/08/23 10:03:14;;;;;;;1.67;1.27;;;18.60;99.90;;;;;;5048472;28;20048;-84
2021/08/23 10:05:44;;;;;;;2.70;1.25;;;18.70;99.90;;;;;;5049455;28;20823;-83
2021/08/23 10:08:24;;;;;;;1.90;1.40;;;18.70;99.90;;;;;;5047807;28;20112;-84
2021/08/23 10:10:51;;;;;;;1.52;1.13;;;18.80;99.90;;;;;;5035263;28;20493;-85
2021/08/23 10:13:18;;;;;;;2.67;1.20;;;18.80;99.90;;;;;;5048675;28;20051;-84
2021/08/23 10:15:44;;;;;;;2.45;1.13;;;18.90;99.90;;;;;;5037774;28;20049;-85
2021/08/23 10:18:10;;;;;;;1.30;1.10;;;18.90;99.90;;;;;;5047407;28;21709;-85
2021/08/23 10:20:37;;;;;;;5.18;1.00;;;18.90;99.90;;;;;;5048789;28;20040;-84
2021/08/23 10:23:04;;;;;;;1.35;1.20;;;18.90;99.90;;;;;;5047948;28;20540;-84
2021/08/23 10:25:31;;;;;;;1.45;0.90;;;19.00;99.90;;;;;;5055182;28;20128;-83
2021/08/23 10:28:12;;;;;;;1.17;0.90;;;19.10;99.90;;;;;;5048720;28;20060;-85
2021/08/23 10:30:39;;;;;;;4.28;1.00;;;19.10;99.90;;;;;;5045822;28;20487;-85
2021/08/23 10:33:17;;;;;;;1.88;0.80;;;19.20;99.90;;;;;;5049394;28;20044;-85
2021/08/23 10:35:49;;;;;;;1.95;1.33;;;19.20;99.90;;;;;;5046110;28;20033;-85
2021/08/23 10:38:17;;;;;;;4.07;1.10;;;19.30;99.90;;;;;;5046998;28;20036;-84
2021/08/23 10:40:44;;;;;;;9.90;1.42;;;19.40;99.90;;;;;;5048722;28;20056;-85
2021/08/23 10:43:18;;;;;;;3.60;1.00;;;19.40;99.90;;;;;;5063565;28;20049;-84
2021/08/23 10:45:44;;;;;;;5.07;1.10;;;19.50;99.90;;;;;;5063938;28;20047;-85
2021/08/23 10:48:20;;;;;;;5.75;1.10;;;19.50;99.90;;;;;;5047188;28;20538;-84
2021/08/23 10:51:01;;;;;;;4.40;1.30;;;19.60;99.90;;;;;;5048286;28;20048;-84
2021/08/23 10:53:38;;;;;;;3.80;1.13;;;19.60;99.90;;;;;;5029913;28;20053;-85
2021/08/23 10:56:16;;;;;;;3.65;0.98;;;19.70;99.90;;;;;;5047989;28;20037;-85
2021/08/23 10:58:42;;;;;;;5.68;1.15;;;19.70;99.90;;;;;;5048593;28;20055;-85
2021/08/23 11:01:22;;;;;;;4.18;1.30;;;19.70;99.90;;;;;;5029781;28;20382;-84
2021/08/23 11:04:00;;;;;;;4.18;1.10;;;19.70;99.90;;;;;;5029359;28;20052;-85
2021/08/23 11:06:26;;;;;;;2.70;1.00;;;19.70;99.90;;;;;;5041640;28;20041;-85
2021/08/23 11:08:52;;;;;;;2.22;1.05;;;19.80;99.90;;;;;;5026888;28;20045;-84
2021/08/23 11:11:18;;;;;;;2.85;1.00;;;19.90;99.90;;;;;;5050126;28;20138;-85
2021/08/23 11:13:44;;;;;;;2.58;1.10;;;20.00;99.90;;;;;;5064253;28;20500;-85
2021/08/23 11:16:10;;;;;;;4.72;1.05;;;20.00;99.90;;;;;;5062890;28;20037;-85
2021/08/23 11:18:41;;;;;;;1.00;0.85;;;20.10;99.90;;;;;;5043336;28;20069;-86
2021/08/23 11:21:16;;;;;;;2.08;1.00;;;20.10;99.90;;;;;;5047332;28;20393;-85
2021/08/23 11:23:44;;;;;;;2.63;1.13;;;20.20;99.90;;;;;;5050684;28;20491;-85
2021/08/23 11:26:21;;;;;;;3.90;1.00;;;20.20;99.90;;;;;;5049689;28;20033;-85
2021/08/23 11:28:48;;;;;;;2.08;0.90;;;20.20;99.90;;;;;;5051732;28;20045;-85
2021/08/23 11:31:19;;;;;;;1.10;0.88;;;20.30;99.90;;;;;;5031952;28;20047;-84
2021/08/23 11:33:45;;;;;;;5.35;1.25;;;20.30;99.90;;;;;;5052495;28;20040;-85
2021/08/23 11:36:21;;;;;;;4.90;1.20;;;20.40;99.90;;;;;;5051007;28;20044;-87
2021/08/23 11:38:47;;;;;;;2.88;1.00;;;20.50;99.90;;;;;;5044662;28;20045;-86
2021/08/23 11:41:15;;;;;;;3.03;1.20;;;20.50;99.90;;;;;;5035803;28;20051;-85
2021/08/23 11:43:41;;;;;;;3.20;1.00;;;20.60;99.90;;;;;;5034149;28;20477;-86
2021/08/23 11:46:07;;;;;;;1.25;0.88;;;20.60;99.90;;;;;;5016516;28;20041;-86
2021/08/23 11:48:34;;;;;;;12.45;2.85;;;20.60;99.90;;;;;;5051167;28;20385;-86
2021/08/23 11:51:00;;;;;;;39.83;8.00;;;20.60;99.90;;;;;;5033595;28;20118;-86
2021/08/23 11:53:30;;;;;;;6.88;1.33;;;20.60;99.90;;;;;;5049489;28;20080;-85
2021/08/23 11:56:07;;;;;;;5.93;1.23;;;20.60;99.90;;;;;;5050566;28;20052;-85
2021/08/23 11:58:40;;;;;;;4.28;0.73;;;20.70;99.90;;;;;;5017162;28;20429;-86
2021/08/23 12:01:10;;;;;;;2.58;0.90;;;20.80;99.90;;;;;;5066012;28;20045;-86
2021/08/23 12:03:37;;;;;;;3.92;1.33;;;20.90;99.90;;;;;;5051001;28;20045;-86
2021/08/23 12:06:08;;;;;;;4.07;1.05;;;21.00;99.90;;;;;;5051227;28;20127;-87
2021/08/23 12:08:40;;;;;;;2.53;0.90;;;21.10;99.90;;;;;;5051313;28;20112;-85
2021/08/23 12:11:09;;;;;;;1.10;0.50;;;21.20;99.90;;;;;;5033324;28;20392;-86
2021/08/23 12:13:41;;;;;;;2.30;0.93;;;21.10;99.90;;;;;;5050297;28;20072;-85
2021/08/23 12:16:19;;;;;;;2.55;0.98;;;21.10;99.90;;;;;;5032715;28;20040;-87
2021/08/23 12:18:52;;;;;;;2.85;0.80;;;21.20;99.90;;;;;;5051263;28;20539;-86
2021/08/23 12:21:28;;;;;;;2.88;0.90;;;21.40;99.90;;;;;;5049518;28;20544;-86
2021/08/23 12:24:15;;;;;;;15.48;3.45;;;21.40;99.90;;;;;;5058889;28;20499;-86
2021/08/23 12:26:42;;;;;;;1.35;0.70;;;21.30;99.90;;;;;;5030432;28;20120;-87
2021/08/23 12:29:11;;;;;;;1.80;1.00;;;21.20;99.90;;;;;;5032896;28;20067;-86
2021/08/23 12:32:04;;;;;;;1.67;0.80;;;21.00;99.90;;;;;;5032716;28;20068;-86
2021/08/23 12:34:33;;;;;;;9.77;1.10;;;20.90;99.90;;;;;;5045077;28;20029;-86
2021/08/23 12:37:00;;;;;;;1.80;1.00;;;21.10;99.90;;;;;;5066444;28;20045;-86
2021/08/23 12:39:26;;;;;;;1.40;0.90;;;21.20;99.90;;;;;;5031703;28;20627;-87
2021/08/23 12:41:54;;;;;;;3.22;0.70;;;21.10;99.90;;;;;;5033006;28;20055;-86
2021/08/23 12:44:20;;;;;;;2.10;1.23;;;21.10;99.90;;;;;;5032325;28;20045;-87
2021/08/23 12:46:46;;;;;;;2.65;0.70;;;21.20;99.90;;;;;;5049156;28;20049;-86
2021/08/23 12:49:12;;;;;;;1.45;0.47;;;21.40;99.90;;;;;;4999193;28;20098;-86